HQZ weather

Mesquite Metro Airport
Mesquite, Texas, United States

Public forecast

Using degrees Fahrenheit for public forecast. Weather courtesy of forecast.io.

METAR (pilot weather report)

Retrieved 2019/06/19 21:50 UTC (26 minutes ago):

KHQZ 192150Z 17016G21KT 8SM SCT036 34/24 A2969

TAF (pilot weather forecast)

Closest forecast is Dallas Love Field, 17.3 nm (32.0 km) WNW. Retrieved 2019/06/19 18:33 UTC (4 hours ago):

TAF KDAL 191729Z 1918/2018 19015KT P6SM SCT027 SCT250 TEMPO 1918/1919 BKN027 FM192300 21016KT P6SM VCTS SCT050CB BKN120 TEMPO 1923/2003 27025G35KT +TSRA BKN040CB FM200400 18009KT P6SM SCT120 BKN250 FM200800 14008KT P6SM SCT025 BKN035 FM201300 14008KT P6SM BKN025 FM201500 18015KT P6SM SCT250